Have a Safe July 4th! 

Flight Track Log - Related Links

Times and Time Zones

All times are in EDT time to prevent confusion due to time zone crossing. See the KAP826 flight status page for this flight to view local times or setup timezone preferences in your user account.

Time Position Orientation Groundspeed Altitude Reporting Facility
EDT Latitude Longitude Course Direction KTS MPH feet Rate Location/Type
Fri 08:18:17 PM 18.4333 -65.9667 62° Northeast 110 127 800  Level San Juan Center
Fri 08:19:17 PM 18.4500 -65.9333 62° Northeast 120 138 1,600 750 Climbing San Juan Center
Fri 08:20:17 PM 18.4500 -65.9000 90° East 130 150 2,300 600 Climbing San Juan Center
Fri 08:21:17 PM 18.4500 -65.8667 90° East 150 173 2,800 500 Climbing San Juan Center
Fri 08:22:17 PM 18.4500 -65.8167 90° East 150 173 3,300 496 Climbing San Juan Center
Fri 08:23:18 PM 18.4500 -65.7667 90° East 150 173 3,800 496 Climbing San Juan Center
Fri 08:24:18 PM 18.4500 -65.7333 90° East 150 173 4,300 450 Climbing San Juan Center
Fri 08:25:18 PM 18.4500 -65.6833 90° East 150 173 4,700 350 Climbing San Juan Center
Fri 08:26:18 PM 18.4500 -65.6333 90° East 160 184 5,000 150 Climbing San Juan Center
Fri 08:27:18 PM 18.4500 -65.5833 90° East 170 196 5,000  Level San Juan Center
Fri 08:28:18 PM 18.4500 -65.5500 90° East 160 184 5,000  Level San Juan Center
Fri 08:29:19 PM 18.4500 -65.5000 90° East 160 184 5,000  Level San Juan Center
Fri 08:30:19 PM 18.4500 -65.4500 90° East 160 184 5,000  Level San Juan Center
Fri 08:31:19 PM 18.4500 -65.4000 90° East 160 184 5,000  Level San Juan Center
Fri 08:32:19 PM 18.4500 -65.3500 90° East 160 184 5,000  Level San Juan Center
Fri 08:33:19 PM 18.4500 -65.3000 90° East 160 184 5,000  Level San Juan Center
Fri 08:34:19 PM 18.4500 -65.2667 90° East 160 184 5,000  Level San Juan Center
Fri 08:35:19 PM 18.4500 -65.2167 90° East 160 184 5,000 -150 Level San Juan Center
Fri 08:36:19 PM 18.4333 -65.1667 109° East 160 184 4,700 -300 Descending San Juan Center
Fri 08:37:19 PM 18.4500 -65.1167 71° East 170 196 4,400 -298 Descending San Juan Center
Fri 08:38:20 PM 18.4333 -65.0667 109° East 170 196 4,100 -298 Descending San Juan Center
Fri 08:39:20 PM 18.4333 -65.0167 90° East 170 196 3,800 -300 Descending San Juan Center
Fri 08:40:20 PM 18.4333 -64.9667 90° East 160 184 3,500 -300 Descending San Juan Center
Fri 08:41:20 PM 18.4167 -64.9333 118° Southeast 160 184 3,200 -300 Descending San Juan Center
Fri 08:42:20 PM 18.4167 -64.8833 90° East 160 184 2,900 -200 Descending San Juan Center
Fri 08:43:20 PM 18.4000 -64.8333 109° East 160 184 2,800 -149 Descending San Juan Center
Fri 08:44:21 PM 18.3833 -64.7833 109° East 150 173 2,600 -248 Descending San Juan Center
Fri 08:45:21 PM 18.3833 -64.7500 90° East 160 184 2,300 -300 Descending San Juan Center
Fri 08:46:21 PM 18.3667 -64.7000 109° East 170 196 2,000 -300 Descending San Juan Center
Fri 08:47:21 PM 18.3667 -64.6500 90° East 150 173 1,700 -300 Descending San Juan Center
Fri 08:48:21 PM 18.3833 -64.6167 62° Northeast 150 173 1,400 -250 Descending San Juan Center
Fri 08:49:21 PM 18.4000 -64.5833 62° Northeast 140 161 1,200 -200 Descending San Juan Center

Login

Don't have an account? Register now (free) for customized features, flight alerts, and more!